Time;durP1;ratioP1;P1;durP2;ratioP2;P2;SDS_P1;SDS_P2;PMS_P1;PMS_P2;Temp;Humidity;BMP_temperature;BMP_pressure;BME280_temperature;BME280_humidity;BME280_pressure;Samples;Min_cycle;Max_cycle;Signal;HPM_P1;HPM_P2
2023/02/20 00:02:05;;;;;;;11.43;5.73;;;4.70;99.90;;;;;;4843098;29;20220;-78
2023/02/20 00:04:31;;;;;;;7.83;5.23;;;4.70;99.90;;;;;;4872247;29;20220;-79
2023/02/20 00:06:56;;;;;;;9.97;5.27;;;4.70;99.90;;;;;;4879019;29;20207;-79
2023/02/20 00:09:22;;;;;;;13.10;5.90;;;4.80;99.90;;;;;;4861318;29;20561;-79
2023/02/20 00:11:48;;;;;;;7.60;5.27;;;4.80;99.90;;;;;;4844687;29;20190;-80
2023/02/20 00:14:13;;;;;;;11.90;6.00;;;4.90;99.90;;;;;;4859657;29;20875;-79
2023/02/20 00:16:39;;;;;;;10.20;5.30;;;4.90;99.90;;;;;;4845528;29;20617;-79
2023/02/20 00:19:05;;;;;;;9.80;6.03;;;4.80;99.90;;;;;;4843984;29;20201;-79
2023/02/20 00:21:31;;;;;;;11.40;6.13;;;4.90;99.90;;;;;;4862021;29;20184;-79
2023/02/20 00:23:56;;;;;;;8.23;5.67;;;4.90;99.90;;;;;;4861550;29;20203;-79
2023/02/20 00:26:22;;;;;;;12.43;6.10;;;4.90;99.90;;;;;;4860338;29;20631;-79
2023/02/20 00:28:48;;;;;;;8.77;5.43;;;5.00;99.90;;;;;;4861435;29;20199;-80
2023/02/20 00:31:17;;;;;;;10.83;6.20;;;4.90;99.90;;;;;;4860907;29;20201;-79
2023/02/20 00:33:43;;;;;;;10.97;6.37;;;5.00;99.90;;;;;;4865345;29;20308;-79
2023/02/20 00:36:15;;;;;;;13.37;6.97;;;5.00;99.90;;;;;;4864956;29;20858;-79
2023/02/20 00:38:43;;;;;;;9.40;6.17;;;5.00;99.90;;;;;;4860025;29;20184;-80
2023/02/20 00:41:11;;;;;;;9.13;6.53;;;5.10;99.90;;;;;;4860466;29;20280;-80
2023/02/20 00:43:37;;;;;;;15.17;7.00;;;5.10;99.90;;;;;;4860412;29;20184;-79
2023/02/20 00:46:03;;;;;;;9.47;6.30;;;5.20;99.90;;;;;;4860082;29;20671;-79
2023/02/20 00:48:29;;;;;;;10.57;7.13;;;5.30;99.90;;;;;;4861273;29;20200;-80
2023/02/20 00:50:54;;;;;;;9.80;7.03;;;5.20;99.90;;;;;;5383935;23;20251;-82
2023/02/20 00:53:20;;;;;;;9.83;6.77;;;5.30;99.90;;;;;;4859210;29;20192;-79
2023/02/20 00:55:46;;;;;;;10.00;6.80;;;5.30;99.90;;;;;;4856485;29;20701;-81
2023/02/20 00:58:11;;;;;;;11.57;7.43;;;5.30;99.90;;;;;;4841267;29;20185;-79
2023/02/20 01:00:37;;;;;;;10.97;7.10;;;5.30;99.90;;;;;;4855927;29;20245;-79
2023/02/20 01:03:03;;;;;;;11.13;7.20;;;5.40;99.90;;;;;;4840862;29;20188;-80
2023/02/20 01:05:29;;;;;;;10.83;7.43;;;5.40;99.90;;;;;;4852403;29;20200;-79
2023/02/20 01:07:54;;;;;;;10.67;7.17;;;5.40;99.90;;;;;;4843651;29;20590;-79
2023/02/20 01:10:20;;;;;;;8.87;6.30;;;5.40;99.90;;;;;;4843806;29;20977;-80
2023/02/20 01:12:46;;;;;;;12.83;7.37;;;5.40;99.90;;;;;;4860957;29;20624;-80
2023/02/20 01:15:14;;;;;;;11.20;6.77;;;5.50;99.90;;;;;;4859961;29;20220;-79
2023/02/20 01:17:40;;;;;;;10.83;7.07;;;5.50;99.90;;;;;;4860033;29;21067;-79
2023/02/20 01:20:08;;;;;;;9.90;6.77;;;5.50;99.90;;;;;;4857054;29;20196;-78
2023/02/20 01:22:33;;;;;;;11.60;7.13;;;5.50;99.90;;;;;;4860108;29;20185;-81
2023/02/20 01:24:59;;;;;;;9.30;6.83;;;5.50;99.90;;;;;;4843567;29;20196;-79
2023/02/20 01:27:25;;;;;;;10.47;6.90;;;5.50;99.90;;;;;;4860706;29;20612;-79
2023/02/20 01:29:50;;;;;;;13.63;7.37;;;5.60;99.90;;;;;;4859163;29;20196;-78
2023/02/20 01:32:16;;;;;;;9.63;6.30;;;5.60;99.90;;;;;;4859761;29;20259;-78
2023/02/20 01:34:42;;;;;;;10.80;6.47;;;5.60;99.90;;;;;;4859687;29;20216;-78
2023/02/20 01:37:13;;;;;;;10.53;6.43;;;5.70;99.90;;;;;;4859339;29;20185;-78
2023/02/20 01:39:38;;;;;;;8.43;6.30;;;5.60;99.90;;;;;;4859898;29;20669;-79
2023/02/20 01:42:07;;;;;;;10.43;6.60;;;5.60;99.90;;;;;;4859484;29;20188;-80
2023/02/20 01:44:36;;;;;;;12.03;6.13;;;5.60;99.90;;;;;;4857761;29;20199;-78
2023/02/20 01:47:08;;;;;;;10.37;6.67;;;5.70;99.90;;;;;;4855300;29;20188;-79
2023/02/20 01:49:45;;;;;;;8.00;5.80;;;5.60;99.90;;;;;;4843456;29;20244;-80
2023/02/20 01:52:24;;;;;;;9.87;6.20;;;5.70;99.90;;;;;;4859147;29;20228;-79
2023/02/20 01:55:16;;;;;;;9.63;6.33;;;5.60;99.90;;;;;;4859962;29;20235;-79
2023/02/20 01:57:49;;;;;;;8.87;5.97;;;5.60;99.90;;;;;;4858616;29;20180;-79
2023/02/20 02:00:18;;;;;;;7.87;6.00;;;5.60;99.90;;;;;;4858384;29;20185;-79
2023/02/20 02:03:21;;;;;;;7.53;5.37;;;5.60;99.90;;;;;;4844174;29;20566;-79
2023/02/20 02:06:00;;;;;;;9.27;5.90;;;5.60;99.90;;;;;;4809014;29;20237;-79
2023/02/20 02:08:28;;;;;;;8.30;5.43;;;5.60;99.90;;;;;;4843791;29;20274;-79
2023/02/20 02:11:03;;;;;;;7.67;5.43;;;5.60;99.90;;;;;;4842046;29;20200;-79
2023/02/20 02:13:30;;;;;;;8.10;5.60;;;5.70;99.90;;;;;;4858904;29;20227;-79
2023/02/20 02:16:26;;;;;;;9.40;5.73;;;5.60;99.90;;;;;;4839955;29;20197;-79
2023/02/20 02:19:06;;;;;;;10.47;5.63;;;5.60;99.90;;;;;;4857586;29;20188;-79
2023/02/20 02:22:12;;;;;;;10.33;5.83;;;5.60;99.90;;;;;;4858167;29;20196;-80
2023/02/20 02:24:49;;;;;;;8.27;5.80;;;5.60;99.90;;;;;;4857856;29;20220;-79
2023/02/20 02:27:15;;;;;;;7.30;5.60;;;5.50;99.90;;;;;;4859548;29;20173;-80
2023/02/20 02:29:53;;;;;;;8.37;5.53;;;5.50;99.90;;;;;;4842492;29;20542;-79
2023/02/20 02:32:56;;;;;;;6.53;5.07;;;5.50;99.90;;;;;;4854272;29;20624;-79
2023/02/20 02:35:29;;;;;;;7.83;5.77;;;5.50;99.90;;;;;;4857826;29;20208;-79
2023/02/20 02:38:06;;;;;;;7.20;5.57;;;5.50;99.90;;;;;;4857417;29;20191;-79
2023/02/20 02:41:01;;;;;;;7.10;5.30;;;5.50;99.90;;;;;;4862135;29;20271;-80
2023/02/20 02:43:47;;;;;;;7.23;4.83;;;5.60;99.90;;;;;;4862647;29;20616;-80
2023/02/20 02:46:44;;;;;;;6.47;4.80;;;5.60;99.90;;;;;;4848503;29;20196;-79
2023/02/20 02:49:25;;;;;;;6.70;4.97;;;5.60;99.90;;;;;;4858330;29;20216;-79
2023/02/20 02:51:54;;;;;;;7.50;5.43;;;5.60;99.90;;;;;;4861192;29;20236;-79
2023/02/20 02:54:26;;;;;;;6.67;5.13;;;5.60;99.90;;;;;;4860531;29;20212;-78
2023/02/20 02:57:11;;;;;;;8.83;5.80;;;5.60;99.90;;;;;;4860593;29;20267;-78
2023/02/20 02:59:37;;;;;;;6.30;4.97;;;5.60;99.90;;;;;;4861424;29;20241;-79
2023/02/20 03:02:10;;;;;;;6.60;5.17;;;5.60;99.90;;;;;;4862232;29;20185;-79
2023/02/20 03:04:37;;;;;;;8.73;5.57;;;5.60;99.90;;;;;;4846184;29;20192;-79
2023/02/20 03:07:09;;;;;;;7.37;5.30;;;5.60;99.90;;;;;;4845490;29;20314;-78
2023/02/20 03:09:40;;;;;;;6.83;5.20;;;5.60;99.90;;;;;;4862205;29;20180;-79
2023/02/20 03:12:08;;;;;;;6.10;5.00;;;5.60;99.90;;;;;;4862913;29;20276;-80
2023/02/20 03:18:09;;;;;;;6.43;4.83;;;5.50;99.90;;;;;;4860537;29;20188;-79
2023/02/20 03:20:41;;;;;;;6.13;4.93;;;5.50;99.90;;;;;;4829636;29;20655;-78
2023/02/20 03:23:10;;;;;;;5.57;4.93;;;5.60;99.90;;;;;;4862016;29;20212;-81
2023/02/20 03:25:40;;;;;;;7.70;5.03;;;5.60;99.90;;;;;;4861321;29;20212;-80
2023/02/20 03:28:14;;;;;;;7.67;5.47;;;5.60;99.90;;;;;;4846330;29;20181;-79
2023/02/20 03:30:42;;;;;;;8.13;5.63;;;5.60;99.90;;;;;;4860967;29;20288;-79
2023/02/20 03:45:07;;;;;;;9.27;7.13;;;5.70;99.90;;;;;;4861214;29;20219;-78
2023/02/20 03:47:38;;;;;;;10.07;6.50;;;5.70;99.90;;;;;;4861501;29;20199;-78
2023/02/20 03:52:49;;;;;;;9.73;7.47;;;5.80;99.90;;;;;;4862465;29;20699;-79
2023/02/20 03:55:15;;;;;;;11.37;7.73;;;5.70;99.90;;;;;;4860596;29;20213;-79
2023/02/20 03:57:46;;;;;;;10.27;7.70;;;5.80;99.90;;;;;;4861329;29;20206;-79
2023/02/20 04:00:18;;;;;;;10.43;8.17;;;5.80;99.90;;;;;;4857588;29;20185;-79
2023/02/20 04:02:48;;;;;;;11.20;7.47;;;5.80;99.90;;;;;;4860603;29;20244;-78
2023/02/20 04:05:23;;;;;;;10.73;7.90;;;5.80;99.90;;;;;;4840297;29;20536;-78
2023/02/20 04:08:02;;;;;;;10.07;7.00;;;5.80;99.90;;;;;;4843474;29;20534;-81
2023/02/20 04:10:31;;;;;;;9.37;7.37;;;5.80;99.90;;;;;;4853328;29;20173;-80
2023/02/20 04:12:58;;;;;;;10.33;7.73;;;5.80;99.90;;;;;;4861019;29;20227;-79
2023/02/20 04:15:24;;;;;;;9.23;7.47;;;5.80;99.90;;;;;;4859760;29;20212;-78
2023/02/20 04:17:55;;;;;;;12.00;8.37;;;5.80;99.90;;;;;;4860491;29;20197;-79
2023/02/20 04:20:22;;;;;;;10.40;7.77;;;5.90;99.90;;;;;;4847876;29;20193;-79
2023/02/20 04:22:52;;;;;;;10.30;8.40;;;5.80;99.90;;;;;;4861929;29;20189;-79
2023/02/20 04:25:24;;;;;;;10.43;8.37;;;5.80;99.90;;;;;;4861395;29;20177;-82
2023/02/20 04:27:50;;;;;;;13.07;9.63;;;5.90;99.90;;;;;;4860967;29;20199;-79
2023/02/20 04:30:15;;;;;;;10.70;9.20;;;5.90;99.90;;;;;;4859378;29;20512;-79
2023/02/20 04:32:43;;;;;;;12.33;9.67;;;5.80;99.90;;;;;;4859432;29;20201;-80
2023/02/20 04:35:16;;;;;;;13.60;10.20;;;5.80;99.90;;;;;;4860671;29;20334;-79
2023/02/20 04:37:41;;;;;;;13.60;10.17;;;5.90;99.90;;;;;;4844538;29;20188;-79
2023/02/20 04:40:09;;;;;;;14.07;11.43;;;5.80;99.90;;;;;;4857732;29;20189;-79
2023/02/20 04:42:35;;;;;;;13.60;10.53;;;5.80;99.90;;;;;;4860412;29;20203;-79
2023/02/20 04:45:00;;;;;;;15.40;11.47;;;5.80;99.90;;;;;;4858990;29;20605;-78
2023/02/20 04:47:26;;;;;;;15.13;11.03;;;5.80;99.90;;;;;;4860004;29;20191;-79
2023/02/20 04:49:52;;;;;;;13.57;10.80;;;5.80;99.90;;;;;;4859587;29;20211;-78
2023/02/20 04:52:17;;;;;;;17.40;12.30;;;5.80;99.90;;;;;;4859747;29;20184;-78
2023/02/20 04:54:43;;;;;;;16.73;11.70;;;5.80;99.90;;;;;;4860258;29;20222;-79
2023/02/20 04:57:09;;;;;;;18.13;11.87;;;5.80;99.90;;;;;;4860369;29;20647;-79
2023/02/20 04:59:34;;;;;;;17.13;12.50;;;5.80;99.90;;;;;;4857424;29;20188;-79
2023/02/20 05:02:00;;;;;;;16.03;12.27;;;5.80;99.90;;;;;;4861339;29;20181;-79
2023/02/20 05:04:27;;;;;;;16.03;12.10;;;5.80;99.90;;;;;;4859565;29;20180;-78
2023/02/20 05:06:54;;;;;;;16.00;11.90;;;5.80;99.90;;;;;;4860162;29;20180;-80
2023/02/20 05:09:21;;;;;;;17.07;11.77;;;5.90;99.90;;;;;;4860157;29;20180;-80
2023/02/20 05:11:46;;;;;;;16.77;11.53;;;5.90;99.90;;;;;;4860512;29;20613;-80
2023/02/20 05:14:13;;;;;;;16.60;11.50;;;5.90;99.90;;;;;;4844311;29;20277;-79
2023/02/20 05:16:40;;;;;;;14.83;10.47;;;5.90;99.90;;;;;;4859371;29;20197;-78
2023/02/20 05:19:07;;;;;;;17.53;11.67;;;5.90;99.90;;;;;;4859120;29;20196;-79
2023/02/20 05:24:18;;;;;;;14.00;11.10;;;5.90;99.90;;;;;;4860516;29;20200;-79
2023/02/20 05:26:44;;;;;;;14.63;11.43;;;5.90;99.90;;;;;;4860768;29;20177;-78
2023/02/20 05:29:11;;;;;;;13.63;11.07;;;5.80;99.90;;;;;;4857739;29;21028;-79
2023/02/20 05:31:41;;;;;;;16.27;11.90;;;5.80;99.90;;;;;;4858965;29;20188;-79
2023/02/20 05:34:07;;;;;;;16.00;11.33;;;5.80;99.90;;;;;;4860653;29;20240;-79
2023/02/20 05:36:33;;;;;;;17.20;12.37;;;5.70;99.90;;;;;;4843333;29;20232;-79
2023/02/20 05:38:59;;;;;;;19.53;11.53;;;5.70;99.90;;;;;;4858449;29;20188;-78
2023/02/20 05:41:25;;;;;;;16.50;11.63;;;5.80;99.90;;;;;;4843987;29;20188;-79
2023/02/20 05:43:53;;;;;;;14.60;10.80;;;5.70;99.90;;;;;;4858983;29;20687;-79
2023/02/20 05:46:19;;;;;;;17.40;11.00;;;5.80;99.90;;;;;;4844204;29;20189;-78
2023/02/20 05:48:49;;;;;;;18.30;10.93;;;5.80;99.90;;;;;;4859149;29;20692;-79
2023/02/20 05:51:27;;;;;;;15.90;11.30;;;5.90;99.90;;;;;;4859318;29;20239;-79
2023/02/20 05:53:53;;;;;;;13.87;10.50;;;5.90;99.90;;;;;;4859264;29;20216;-79
2023/02/20 05:56:20;;;;;;;14.73;10.40;;;5.80;99.90;;;;;;4860355;29;20188;-79
2023/02/20 05:58:46;;;;;;;18.30;11.23;;;5.90;99.90;;;;;;4858484;29;20193;-79
2023/02/20 06:01:24;;;;;;;19.23;11.33;;;5.90;99.90;;;;;;4841492;29;20321;-78
2023/02/20 06:03:50;;;;;;;17.23;10.23;;;5.90;99.90;;;;;;4858900;29;20580;-78
2023/02/20 06:06:16;;;;;;;16.20;10.70;;;5.90;99.90;;;;;;4860148;29;20635;-79
2023/02/20 06:08:42;;;;;;;15.67;10.33;;;5.90;99.90;;;;;;4860277;29;20217;-78
2023/02/20 06:11:10;;;;;;;17.90;10.97;;;6.00;99.90;;;;;;4858824;29;20288;-78
2023/02/20 06:13:38;;;;;;;14.90;10.13;;;6.00;99.90;;;;;;4862736;29;20238;-80
2023/02/20 06:16:04;;;;;;;15.63;10.13;;;6.00;99.90;;;;;;4846747;29;20227;-78
2023/02/20 06:18:30;;;;;;;13.57;9.63;;;6.00;99.90;;;;;;4861608;29;20196;-79
2023/02/20 06:20:55;;;;;;;16.00;9.87;;;6.10;99.90;;;;;;4861087;29;20200;-78
2023/02/20 06:23:21;;;;;;;15.40;10.00;;;6.10;99.90;;;;;;4862119;29;20240;-78
2023/02/20 06:25:47;;;;;;;15.07;9.10;;;6.10;99.90;;;;;;4862343;29;20196;-79
2023/02/20 06:28:13;;;;;;;15.17;8.83;;;6.10;99.90;;;;;;4857053;29;20499;-79
2023/02/20 06:30:38;;;;;;;15.70;9.10;;;6.10;99.90;;;;;;4861924;29;20189;-78
2023/02/20 06:33:04;;;;;;;14.60;9.30;;;6.10;99.90;;;;;;4860743;29;20708;-78
2023/02/20 06:35:29;;;;;;;15.90;9.30;;;6.10;99.90;;;;;;4846926;29;20217;-78
2023/02/20 06:37:55;;;;;;;11.00;8.00;;;6.10;99.90;;;;;;4862837;29;20692;-78
2023/02/20 06:40:21;;;;;;;14.00;9.27;;;6.20;99.90;;;;;;4862758;29;20236;-79
2023/02/20 06:42:46;;;;;;;15.93;8.03;;;6.20;99.90;;;;;;4862939;29;20212;-79
2023/02/20 06:45:12;;;;;;;14.23;8.80;;;6.30;99.90;;;;;;4861637;29;20208;-78
2023/02/20 06:47:38;;;;;;;13.73;8.47;;;6.30;99.90;;;;;;4861158;29;20192;-79
2023/02/20 06:50:04;;;;;;;12.10;8.43;;;6.30;99.90;;;;;;4846041;29;20185;-78
2023/02/20 06:52:30;;;;;;;12.77;7.80;;;6.30;99.90;;;;;;4862947;29;20188;-78
2023/02/20 06:54:59;;;;;;;11.20;7.40;;;6.30;99.90;;;;;;4862844;29;20296;-79
2023/02/20 06:57:25;;;;;;;11.90;7.60;;;6.40;99.90;;;;;;4862289;29;20260;-80
2023/02/20 06:59:50;;;;;;;13.10;7.10;;;6.40;99.90;;;;;;4860622;29;20268;-78
2023/02/20 07:02:17;;;;;;;11.03;8.00;;;6.50;99.90;;;;;;4861248;29;20696;-78
2023/02/20 07:04:47;;;;;;;12.37;7.57;;;6.50;99.90;;;;;;4863215;29;20180;-78
2023/02/20 07:07:13;;;;;;;12.37;7.70;;;6.60;99.90;;;;;;4861077;29;20172;-79
2023/02/20 07:09:38;;;;;;;10.93;6.60;;;6.60;99.90;;;;;;4863432;29;20176;-79
2023/02/20 07:12:04;;;;;;;12.57;6.27;;;6.60;99.90;;;;;;4862374;29;20181;-79
2023/02/20 07:14:30;;;;;;;12.83;6.70;;;6.60;99.90;;;;;;4863668;29;20291;-80
2023/02/20 07:16:56;;;;;;;10.17;6.17;;;6.60;99.90;;;;;;4862379;29;20722;-79
2023/02/20 07:19:21;;;;;;;9.03;6.00;;;6.60;99.90;;;;;;4863261;29;20260;-78
2023/02/20 07:21:47;;;;;;;11.83;5.80;;;6.60;99.90;;;;;;4862192;29;20181;-79
2023/02/20 07:24:13;;;;;;;9.23;5.40;;;6.70;99.90;;;;;;4843311;29;20315;-79
2023/02/20 07:26:39;;;;;;;12.67;5.07;;;6.60;99.90;;;;;;4862784;29;20244;-79
2023/02/20 07:29:06;;;;;;;11.17;5.50;;;6.60;99.90;;;;;;4860691;29;20220;-78
2023/02/20 07:31:31;;;;;;;9.53;5.60;;;6.70;99.90;;;;;;4861720;29;20219;-81
2023/02/20 07:33:57;;;;;;;10.10;5.20;;;6.80;99.90;;;;;;4859995;29;20656;-81
2023/02/20 07:36:24;;;;;;;13.43;5.50;;;6.80;99.90;;;;;;4862940;29;20237;-79
2023/02/20 07:39:09;;;;;;;8.13;4.93;;;6.80;99.90;;;;;;4862361;29;20189;-79
2023/02/20 07:41:35;;;;;;;8.43;4.70;;;6.80;99.90;;;;;;4863052;29;20176;-79
2023/02/20 07:44:01;;;;;;;10.47;5.30;;;6.90;99.90;;;;;;4862042;29;20184;-82
2023/02/20 07:46:27;;;;;;;12.63;4.87;;;6.90;99.90;;;;;;4846343;29;20177;-79
2023/02/20 07:48:53;;;;;;;8.40;4.40;;;6.90;99.90;;;;;;4862228;29;20523;-80
2023/02/20 07:51:19;;;;;;;9.50;4.67;;;7.00;99.90;;;;;;4862368;29;20236;-81
2023/02/20 07:53:49;;;;;;;8.27;4.87;;;7.00;99.90;;;;;;4862273;29;20220;-81
2023/02/20 07:56:16;;;;;;;11.10;5.30;;;7.00;99.90;;;;;;4861588;29;20197;-79
2023/02/20 07:58:42;;;;;;;11.37;5.50;;;7.10;99.90;;;;;;4862037;29;20243;-79
2023/02/20 08:01:07;;;;;;;8.23;4.60;;;7.20;99.90;;;;;;4859145;29;20181;-82
2023/02/20 08:03:33;;;;;;;10.90;4.80;;;7.30;99.90;;;;;;4845210;29;20180;-81
2023/02/20 08:05:59;;;;;;;7.47;4.60;;;7.30;99.90;;;;;;4844304;29;20704;-79
2023/02/20 08:08:24;;;;;;;8.00;4.73;;;7.30;99.90;;;;;;4862908;29;20613;-83
2023/02/20 08:10:51;;;;;;;8.60;4.80;;;7.30;99.90;;;;;;4845588;29;20264;-81
2023/02/20 08:13:17;;;;;;;9.37;4.57;;;7.40;99.90;;;;;;4861313;29;20220;-83
2023/02/20 08:15:47;;;;;;;7.67;4.70;;;7.40;99.90;;;;;;4861672;29;20335;-84
2023/02/20 08:18:13;;;;;;;10.40;5.33;;;7.40;99.90;;;;;;4862461;29;20192;-85
2023/02/20 08:20:39;;;;;;;10.90;5.17;;;7.40;99.90;;;;;;4862000;29;20180;-83
2023/02/20 08:23:05;;;;;;;9.17;5.10;;;7.50;99.90;;;;;;4861856;29;20651;-80
2023/02/20 08:25:31;;;;;;;10.03;4.70;;;7.50;99.90;;;;;;4862435;29;20237;-81
2023/02/20 08:27:57;;;;;;;8.60;4.97;;;7.50;99.90;;;;;;4862219;29;20199;-85
2023/02/20 08:30:27;;;;;;;10.37;4.87;;;7.50;99.90;;;;;;4860755;29;20177;-85
2023/02/20 08:32:53;;;;;;;8.17;4.83;;;7.50;99.90;;;;;;4862543;29;20565;-82
2023/02/20 08:35:25;;;;;;;9.73;4.80;;;7.60;99.90;;;;;;4861604;29;20549;-81
2023/02/20 08:37:51;;;;;;;12.23;5.37;;;7.60;99.90;;;;;;4861385;29;20275;-78
2023/02/20 08:40:16;;;;;;;10.07;4.73;;;7.60;99.90;;;;;;4861083;29;20273;-78
2023/02/20 08:42:42;;;;;;;8.37;4.40;;;7.70;99.90;;;;;;4861471;29;20187;-78
2023/02/20 08:45:08;;;;;;;10.70;5.20;;;7.60;99.90;;;;;;4861299;29;20180;-78
2023/02/20 08:47:34;;;;;;;12.13;5.27;;;7.70;99.90;;;;;;4861931;29;20207;-78
2023/02/20 08:50:00;;;;;;;8.40;4.53;;;7.70;99.90;;;;;;4860866;29;20219;-79
2023/02/20 08:52:26;;;;;;;8.00;4.70;;;7.80;99.90;;;;;;4860910;29;20228;-78
2023/02/20 08:54:52;;;;;;;7.00;4.90;;;7.90;99.90;;;;;;4844324;29;20212;-81
2023/02/20 08:57:18;;;;;;;7.17;4.30;;;7.90;99.90;;;;;;4859676;29;20176;-78
2023/02/20 08:59:44;;;;;;;12.37;5.23;;;8.00;99.90;;;;;;4860836;29;20192;-79
2023/02/20 09:02:23;;;;;;;8.63;5.53;;;8.00;99.90;;;;;;4860706;29;20564;-79
2023/02/20 09:04:49;;;;;;;11.03;5.23;;;8.10;99.90;;;;;;4861454;29;20216;-79
2023/02/20 09:07:16;;;;;;;8.97;5.67;;;8.00;99.90;;;;;;4860533;29;20192;-78
2023/02/20 09:09:41;;;;;;;10.73;6.63;;;8.10;99.90;;;;;;4861423;29;20260;-79
2023/02/20 09:12:08;;;;;;;9.43;6.27;;;8.00;99.90;;;;;;4860732;29;20345;-79
2023/02/20 09:14:34;;;;;;;11.10;7.10;;;8.10;99.90;;;;;;4859437;29;20723;-79
2023/02/20 09:17:00;;;;;;;12.57;6.97;;;8.20;99.90;;;;;;4861448;29;20212;-79
2023/02/20 09:19:25;;;;;;;11.93;7.17;;;8.20;99.90;;;;;;4860501;29;20220;-78
2023/02/20 09:21:51;;;;;;;12.43;7.47;;;8.20;99.90;;;;;;4861165;29;20177;-78
2023/02/20 09:24:17;;;;;;;9.10;6.93;;;8.20;99.90;;;;;;4854076;29;20188;-78
2023/02/20 09:26:43;;;;;;;14.47;7.77;;;8.20;99.90;;;;;;4851417;29;20626;-78
2023/02/20 09:29:08;;;;;;;12.93;7.63;;;8.20;99.90;;;;;;4843830;29;20192;-79
2023/02/20 09:31:34;;;;;;;11.53;7.93;;;8.20;99.90;;;;;;4859985;29;20194;-78
2023/02/20 09:34:00;;;;;;;11.93;7.93;;;8.20;99.90;;;;;;4861334;29;20679;-78
2023/02/20 09:36:26;;;;;;;14.93;8.83;;;8.10;99.90;;;;;;4858796;29;20184;-79
2023/02/20 09:38:52;;;;;;;13.83;8.93;;;8.10;99.90;;;;;;4848996;29;20662;-78
2023/02/20 09:41:49;;;;;;;14.53;8.53;;;8.20;99.90;;;;;;4860611;29;20216;-77
2023/02/20 09:44:25;;;;;;;13.10;9.57;;;8.30;99.90;;;;;;4840343;29;20703;-78
2023/02/20 09:46:55;;;;;;;13.77;9.50;;;8.30;99.90;;;;;;4857590;29;20187;-78
2023/02/20 09:49:28;;;;;;;15.60;9.73;;;8.30;99.90;;;;;;4861579;29;20205;-78
2023/02/20 09:52:02;;;;;;;14.97;9.83;;;8.50;99.90;;;;;;4863739;29;20299;-78
2023/02/20 09:54:39;;;;;;;14.57;10.03;;;8.60;99.90;;;;;;4866475;29;20215;-77
2023/02/20 09:57:12;;;;;;;15.60;9.80;;;8.50;99.90;;;;;;4882288;29;20246;-79
2023/02/20 09:59:46;;;;;;;15.70;10.73;;;8.40;99.90;;;;;;4870778;29;20177;-78
2023/02/20 10:02:19;;;;;;;15.53;10.63;;;8.40;99.90;;;;;;4848156;29;20188;-77
2023/02/20 10:04:49;;;;;;;16.67;11.43;;;8.40;99.90;;;;;;4844820;29;20568;-78
2023/02/20 10:07:28;;;;;;;16.97;10.87;;;8.30;99.90;;;;;;4857833;29;20189;-79
2023/02/20 10:09:56;;;;;;;18.73;12.33;;;8.30;99.90;;;;;;4864546;29;20164;-78
2023/02/20 10:12:41;;;;;;;19.43;11.97;;;8.10;99.90;;;;;;4881376;29;20327;-78
2023/02/20 10:15:14;;;;;;;19.80;12.60;;;8.10;99.90;;;;;;4883454;29;20548;-78
2023/02/20 10:18:14;;;;;;;22.00;12.73;;;8.10;99.90;;;;;;4883240;29;20172;-79
2023/02/20 10:21:09;;;;;;;18.47;13.70;;;8.20;99.90;;;;;;4859017;29;20651;-78
2023/02/20 10:23:48;;;;;;;18.53;12.93;;;8.10;99.90;;;;;;4845311;29;20790;-80
2023/02/20 10:26:29;;;;;;;23.17;13.53;;;8.00;99.90;;;;;;4846689;29;20196;-78
2023/02/20 10:29:12;;;;;;;17.93;13.13;;;8.00;99.90;;;;;;4863891;29;20240;-78
2023/02/20 10:31:51;;;;;;;19.00;13.30;;;8.00;99.90;;;;;;4857096;29;20271;-78
2023/02/20 10:34:26;;;;;;;21.83;13.50;;;7.90;99.90;;;;;;4862234;29;20219;-78
2023/02/20 10:37:00;;;;;;;23.37;14.70;;;7.90;99.90;;;;;;4862909;29;20192;-79
2023/02/20 10:39:28;;;;;;;25.90;14.63;;;7.90;99.90;;;;;;4858992;29;20218;-78
2023/02/20 10:42:20;;;;;;;21.50;14.13;;;7.90;99.90;;;;;;4863427;29;20249;-78
2023/02/20 10:44:53;;;;;;;21.97;14.80;;;7.90;99.90;;;;;;4863231;29;20184;-78
2023/02/20 10:47:46;;;;;;;21.17;14.37;;;7.90;99.90;;;;;;4863165;29;20625;-78
2023/02/20 10:50:44;;;;;;;22.63;14.70;;;8.00;99.90;;;;;;4845117;29;20243;-78
2023/02/20 10:53:31;;;;;;;20.03;14.80;;;8.00;99.90;;;;;;4861331;29;20187;-79
2023/02/20 10:56:09;;;;;;;20.47;14.97;;;7.90;99.90;;;;;;4859699;29;20243;-78
2023/02/20 10:59:16;;;;;;;25.83;16.77;;;8.00;99.90;;;;;;4863366;29;20182;-85
2023/02/20 11:01:43;;;;;;;23.27;16.73;;;8.00;99.90;;;;;;4866771;29;20259;-84
2023/02/20 11:04:16;;;;;;;25.40;15.83;;;8.00;99.90;;;;;;4882580;29;20172;-85
2023/02/20 11:06:45;;;;;;;23.00;15.13;;;8.00;99.90;;;;;;4863886;29;20184;-86
2023/02/20 11:09:12;;;;;;;23.57;15.30;;;8.10;99.90;;;;;;4863753;29;20173;-78
2023/02/20 11:11:43;;;;;;;27.57;15.57;;;8.20;99.90;;;;;;4862657;29;20527;-79
2023/02/20 11:14:16;;;;;;;22.80;15.40;;;8.10;99.90;;;;;;4867398;29;20282;-83
2023/02/20 11:16:51;;;;;;;22.73;15.43;;;8.10;99.90;;;;;;4881468;29;20168;-78
2023/02/20 11:19:29;;;;;;;22.87;15.87;;;8.10;99.90;;;;;;4862753;29;20172;-81
2023/02/20 11:21:55;;;;;;;20.93;15.80;;;8.00;99.90;;;;;;4862722;29;20180;-84
2023/02/20 11:24:29;;;;;;;22.30;15.63;;;8.00;99.90;;;;;;4863539;29;20181;-81
2023/02/20 11:26:59;;;;;;;24.60;15.37;;;8.10;99.90;;;;;;4862348;29;20199;-83
2023/02/20 11:29:32;;;;;;;26.73;16.07;;;8.00;99.90;;;;;;4859858;29;20217;-79
2023/02/20 11:32:31;;;;;;;22.00;15.80;;;8.10;99.90;;;;;;4862430;29;20192;-79
2023/02/20 11:35:16;;;;;;;24.40;15.73;;;8.10;99.90;;;;;;4849462;29;20214;-78
2023/02/20 11:37:43;;;;;;;21.50;14.43;;;8.10;99.90;;;;;;4849306;29;20177;-84
2023/02/20 11:40:27;;;;;;;20.33;14.70;;;8.20;99.90;;;;;;4861344;29;20185;-79
2023/02/20 11:42:53;;;;;;;23.07;14.90;;;8.10;99.90;;;;;;4846414;29;20640;-78
2023/02/20 11:45:28;;;;;;;23.70;15.73;;;8.10;99.90;;;;;;4862199;29;20184;-78
2023/02/20 11:48:23;;;;;;;21.17;14.77;;;8.10;99.90;;;;;;4862385;29;20643;-78
2023/02/20 11:50:51;;;;;;;29.43;17.00;;;8.10;99.90;;;;;;4838538;29;20224;-79
2023/02/20 11:53:22;;;;;;;25.33;15.90;;;8.10;99.90;;;;;;4862115;29;20188;-78
2023/02/20 11:56:04;;;;;;;25.87;16.50;;;8.10;99.90;;;;;;4862270;29;20225;-78
2023/02/20 11:58:31;;;;;;;27.07;16.20;;;8.10;99.90;;;;;;4862044;29;20259;-79
2023/02/20 12:00:56;;;;;;;24.30;15.70;;;8.10;99.90;;;;;;4862588;29;20608;-78
2023/02/20 12:03:27;;;;;;;23.20;16.40;;;8.10;99.90;;;;;;4861994;29;20185;-79
2023/02/20 12:05:54;;;;;;;25.63;16.90;;;8.10;99.90;;;;;;4860926;29;20192;-79
2023/02/20 12:08:47;;;;;;;25.17;16.00;;;8.10;99.90;;;;;;4861828;29;20181;-78
2023/02/20 12:11:16;;;;;;;25.50;16.07;;;8.10;99.90;;;;;;4861631;29;20168;-78
2023/02/20 12:13:45;;;;;;;28.07;15.83;;;8.20;99.90;;;;;;4861646;29;20220;-78
2023/02/20 12:16:16;;;;;;;24.73;15.23;;;8.30;99.90;;;;;;4861813;29;20192;-78
2023/02/20 12:18:51;;;;;;;25.53;16.80;;;8.30;99.90;;;;;;4845865;29;20185;-79
2023/02/20 12:21:30;;;;;;;25.10;15.20;;;8.30;99.90;;;;;;4860783;29;20184;-79
2023/02/20 12:24:18;;;;;;;21.27;14.37;;;8.30;99.90;;;;;;4860438;29;20216;-78
2023/02/20 12:26:59;;;;;;;22.37;14.10;;;8.40;99.90;;;;;;4860253;29;20189;-78
2023/02/20 12:29:44;;;;;;;19.73;14.23;;;8.40;99.90;;;;;;4860107;29;20191;-77
2023/02/20 12:32:46;;;;;;;23.93;14.63;;;8.30;99.90;;;;;;4862154;29;20263;-77
2023/02/20 12:35:26;;;;;;;24.57;15.27;;;8.30;99.90;;;;;;4845013;29;20666;-79
2023/02/20 12:37:58;;;;;;;25.67;15.60;;;8.30;99.90;;;;;;4861225;29;20965;-78
2023/02/20 12:40:51;;;;;;;24.33;15.97;;;8.40;99.90;;;;;;4861191;29;20188;-78
2023/02/20 12:43:22;;;;;;;25.13;15.67;;;8.30;99.90;;;;;;4862094;29;20173;-78
2023/02/20 12:46:11;;;;;;;21.27;14.83;;;8.40;99.90;;;;;;4860712;29;20192;-78
2023/02/20 12:49:05;;;;;;;24.70;14.93;;;8.40;99.90;;;;;;4861066;29;20184;-78
2023/02/20 12:51:51;;;;;;;28.23;15.80;;;8.30;99.90;;;;;;4857574;29;20220;-77
2023/02/20 12:54:51;;;;;;;23.50;14.67;;;8.40;99.90;;;;;;4844513;29;20327;-78
2023/02/20 12:57:39;;;;;;;24.73;15.13;;;8.30;99.90;;;;;;4861362;29;20169;-77
2023/02/20 13:00:33;;;;;;;31.20;15.17;;;8.30;99.90;;;;;;4861503;29;20181;-77
2023/02/20 13:03:10;;;;;;;29.80;15.63;;;8.30;99.90;;;;;;4861658;29;20196;-77
2023/02/20 13:05:41;;;;;;;23.50;15.90;;;8.30;99.90;;;;;;4861082;29;20200;-78
2023/02/20 13:08:13;;;;;;;26.63;15.70;;;8.20;99.90;;;;;;4844980;29;20191;-78
2023/02/20 13:10:54;;;;;;;29.80;16.07;;;8.20;99.90;;;;;;4861049;29;20259;-77
2023/02/20 13:13:21;;;;;;;24.13;15.37;;;8.20;99.90;;;;;;4860827;29;20207;-78
2023/02/20 13:16:00;;;;;;;27.13;15.37;;;8.20;99.90;;;;;;4841458;29;20216;-77
2023/02/20 13:18:50;;;;;;;24.17;14.93;;;8.20;99.90;;;;;;4861505;29;20188;-77
2023/02/20 13:21:20;;;;;;;24.87;15.17;;;8.20;99.90;;;;;;4860386;29;20360;-78
2023/02/20 13:23:49;;;;;;;27.63;15.97;;;8.20;99.90;;;;;;4861035;29;20187;-78
2023/02/20 13:26:33;;;;;;;25.10;14.80;;;8.10;99.90;;;;;;4860162;29;20199;-79
2023/02/20 13:29:25;;;;;;;25.80;15.13;;;8.10;99.90;;;;;;4843063;29;20196;-78